Domov               UVHVVR             MKGP            O straneh              
ZDRAVSTVENO VARSTVO RASTLIN
  MREŽA AGROMET. POSTAJ
 ► PROGNOSTIČNA OBVESTILA
AGROMETEOROLOŠKI PODATKI -
ARSO
OBVLADOVANJE TVEGANJ ZARADI
NEUGODNIH VREMENSKIH RAZMER
  ► NARAVNE NESREČE
  ► SUŠA/MOČA
  ► NAMAKANJE
  ► ŽLED (gozdarstvo)
KARTOGRAFSKI PRIKAZI
SPLETNE POVEZAVE
PROJEKTI IN PUBLIKACIJE

AGROMETEOROLOŠKA MREŽA: VREMENSKE POSTAJE IN FENOLOŠKA OPAZOVANJA

Pregled podatkov za lokacijo Otočec, meteorološka postaja 37169

Pregled senzorjev na lokaciji

ID Ime Zadnja
vrednost
Datum
zadnje
spremembe
Tip
senzorja
3926 Omočenost lista (U) 0 U 26.3.2019 18:30 A730WET
3927 Padavine (mm) 0 mm 26.3.2019 18:30 Rain-O-Matic
3924 Relativna vlaga 2 m (% RH) 46,81 % RH 26.3.2019 18:29 50YA
3925 Temperatura 2 m (°C) 10,74 °C 26.3.2019 18:29 50YA

Pregled podatkov zadnjih 24 ur

Zap.
št.
Datum in čas Otočec
Omočenost
lista
Padavine Relativna
vlaga
2
m
Temperatura
2
m
1 26.3.2019 17:30 0 0 44,7 10,9
2 26.3.2019 17:00 0 0 44,1 11,6
3 26.3.2019 16:30 0 0 41,4 12
4 26.3.2019 16:00 0 0 42,1 12,4
5 26.3.2019 15:30 0 0 41,1 12,5
6 26.3.2019 15:00 0 0 41 12,2
7 26.3.2019 14:30 0 0 43,2 11,8
8 26.3.2019 14:00 0 0 43,5 11,8
9 26.3.2019 13:30 0 0 45,8 11,1
10 26.3.2019 13:00 0 0 47,7 10,3
11 26.3.2019 12:30 0 0 50,4 9,8
12 26.3.2019 12:00 0 0 48,6 10,8
13 26.3.2019 11:30 0 0 49,2 11,5
14 26.3.2019 11:00 0 0 54,2 11,1
15 26.3.2019 10:30 0 0 58,7 10,1
16 26.3.2019 10:00 0 0 66 8,6
17 26.3.2019 09:30 0 0 70,5 8,3
18 26.3.2019 09:00 0 0 77,8 7,6
19 26.3.2019 08:30 0 0 95,6 6,2
20 26.3.2019 08:00 5,5 0 99,9 4
21 26.3.2019 07:30 7 0 99,9 3
22 26.3.2019 07:00 5,5 0 99,9 2,7
23 26.3.2019 06:30 4,5 0 99,9 2,6
24 26.3.2019 06:00 4 0 99,9 2,7
25 26.3.2019 05:30 4 0 99,9 2,9
26 26.3.2019 05:00 4 0 99,9 3
27 26.3.2019 04:30 5 0 99,9 2,9
28 26.3.2019 04:00 5 0 99,9 3
29 26.3.2019 03:30 5 0 99,7 3,1
30 26.3.2019 03:00 6 0 99,5 3,1
31 26.3.2019 02:30 7 0 99,3 3,1
32 26.3.2019 02:00 7 0 98,9 3,1
33 26.3.2019 01:30 8 0 98,4 3,1
34 26.3.2019 01:00 7 0 97,2 3,2
35 26.3.2019 00:30 6 0 97,7 3,1
36 26.3.2019 00:00 5 0 97,5 3,1
37 25.3.2019 23:30 4 0 97,5 3,2
38 25.3.2019 23:00 4 0,4 96,7 3,3
39 25.3.2019 22:30 6 1 96,5 3,4
40 25.3.2019 22:00 5 0,6 97,9 3,7
41 25.3.2019 21:30 3 0,4 97,6 3,8
42 25.3.2019 21:00 3 0,4 97,3 3,8
43 25.3.2019 20:30 4 0,8 97,2 4,1
44 25.3.2019 20:00 7 1,4 95,6 4,1
45 25.3.2019 19:30 10 0 93,7 5,1
46 25.3.2019 19:00 10 0 84,3 7,4
47 25.3.2019 18:30 4 0 72,6 9,5
48 25.3.2019 18:00 1 0 70,5 11,5
© 2011 Ministrstvo za kmetijstvo, gozdarstvo in prehrano. Vse pravice pridržane.